Time;durP1;ratioP1;P1;durP2;ratioP2;P2;SDS_P1;SDS_P2;PMS_P1;PMS_P2;Temp;Humidity;BMP_temperature;BMP_pressure;BME280_temperature;BME280_humidity;BME280_pressure;Samples;Min_cycle;Max_cycle;Signal;HPM_P1;HPM_P2
2021/07/27 00:00:54;;;;;;;16.92;12.30;;;;;;;18.55;75.71;100174.28;5066673;28;20113;-77
2021/07/27 00:03:20;;;;;;;16.25;12.65;;;;;;;18.54;75.67;100177.00;5067945;28;20025;-77
2021/07/27 00:05:45;;;;;;;15.65;13.13;;;;;;;18.51;75.70;100175.38;5067589;28;20028;-79
2021/07/27 00:08:11;;;;;;;15.18;13.23;;;;;;;18.51;76.12;100177.13;5067445;28;20117;-77
2021/07/27 00:10:37;;;;;;;16.77;13.45;;;;;;;18.49;76.39;100177.22;5067550;28;20040;-76
2021/07/27 00:13:06;;;;;;;17.50;11.82;;;;;;;18.47;76.45;100173.78;5066022;28;20025;-78
2021/07/27 00:15:32;;;;;;;16.45;13.25;;;;;;;18.46;76.42;100174.72;5065823;28;20055;-77
2021/07/27 00:17:58;;;;;;;14.95;12.95;;;;;;;18.43;76.93;100174.84;5067596;28;20029;-76
2021/07/27 00:20:25;;;;;;;15.40;13.80;;;;;;;18.43;76.77;100166.97;5067330;28;20036;-78
2021/07/27 00:22:50;;;;;;;19.40;14.18;;;;;;;18.35;76.97;100163.84;5067117;28;20033;-77
2021/07/27 00:25:16;;;;;;;18.60;13.07;;;;;;;18.37;77.32;100165.47;5066789;28;20017;-78
2021/07/27 00:27:43;;;;;;;14.52;12.77;;;;;;;18.36;77.21;100162.91;5066980;28;20029;-78
2021/07/27 00:30:09;;;;;;;17.40;13.75;;;;;;;18.35;77.54;100169.09;5065580;28;20370;-77
2021/07/27 00:32:39;;;;;;;17.50;13.68;;;;;;;18.40;77.12;100172.38;5066934;28;20033;-78
2021/07/27 00:35:05;;;;;;;16.85;13.05;;;;;;;18.36;77.15;100170.78;5066233;28;20041;-77
2021/07/27 00:37:32;;;;;;;15.30;13.00;;;;;;;18.31;77.77;100171.84;5066836;28;20036;-78
2021/07/27 00:39:58;;;;;;;15.93;13.63;;;;;;;18.33;77.80;100167.41;5049333;28;20032;-78
2021/07/27 00:42:23;;;;;;;16.40;13.35;;;;;;;18.38;77.53;100161.94;5067026;28;20061;-77
2021/07/27 00:44:49;;;;;;;14.80;13.10;;;;;;;18.45;77.20;100176.47;5066845;28;20025;-77
2021/07/27 00:47:14;;;;;;;13.88;11.38;;;;;;;18.38;77.56;100168.94;5066683;28;20021;-78
2021/07/27 00:49:39;;;;;;;17.33;13.65;;;;;;;18.42;77.98;100167.88;5065190;28;20028;-77
2021/07/27 00:52:05;;;;;;;15.43;12.63;;;;;;;18.39;77.61;100160.13;5065705;28;20388;-78
2021/07/27 00:54:31;;;;;;;14.55;11.90;;;;;;;18.48;76.96;100151.84;5066486;28;20027;-77
2021/07/27 00:56:57;;;;;;;13.82;12.25;;;;;;;18.62;76.45;100145.97;5066514;28;20028;-77
2021/07/27 00:59:22;;;;;;;16.38;12.65;;;;;;;18.58;76.55;100150.50;5066279;28;20100;-78
2021/07/27 01:01:48;;;;;;;13.73;12.25;;;;;;;18.60;76.65;100150.44;5066308;28;20020;-78
2021/07/27 01:04:13;;;;;;;13.18;10.90;;;;;;;18.56;76.20;100146.25;5066535;28;20536;-79
2021/07/27 01:06:39;;;;;;;13.88;12.32;;;;;;;18.60;76.59;100152.19;5066282;28;20032;-78
2021/07/27 01:09:04;;;;;;;15.30;11.95;;;;;;;18.56;76.38;100141.81;5066134;28;20539;-78
2021/07/27 01:11:29;;;;;;;14.45;11.73;;;;;;;18.60;76.44;100147.78;5065126;28;20024;-78
2021/07/27 01:13:55;;;;;;;14.05;11.32;;;;;;;18.54;76.53;100154.19;5066164;28;20021;-79
2021/07/27 01:16:25;;;;;;;14.73;12.43;;;;;;;18.55;76.14;100145.38;5066382;28;20042;-79
2021/07/27 01:19:05;;;;;;;14.00;12.50;;;;;;;18.56;76.64;100151.50;5064688;28;20056;-77
2021/07/27 01:38:11;;;;;;;14.85;12.75;;;;;;;18.49;77.13;100152.69;5065589;28;20056;-77
2021/07/27 01:40:46;;;;;;;14.38;12.88;;;;;;;18.47;77.17;100142.25;5065932;28;20108;-77
2021/07/27 01:43:18;;;;;;;14.15;12.65;;;;;;;18.51;77.17;100148.22;5066261;28;20029;-78
2021/07/27 01:45:44;;;;;;;16.75;13.52;;;;;;;18.50;77.03;100152.63;5064418;28;20017;-77
2021/07/27 01:48:09;;;;;;;14.30;12.30;;;;;;;18.49;77.29;100136.91;5066014;28;20043;-77
2021/07/27 01:50:35;;;;;;;16.15;13.50;;;;;;;18.49;77.21;100137.78;5065951;28;20060;-77
2021/07/27 01:53:04;;;;;;;14.35;12.50;;;;;;;18.53;77.11;100139.34;5064523;28;20029;-77
2021/07/27 01:55:34;;;;;;;14.88;13.25;;;;;;;18.53;77.16;100133.25;5064795;28;20017;-77
2021/07/27 01:58:01;;;;;;;15.48;12.80;;;;;;;18.45;76.99;100112.56;5064848;28;20025;-77
2021/07/27 02:00:27;;;;;;;13.20;11.80;;;;;;;18.56;77.01;100131.31;5066693;28;20031;-78
2021/07/27 02:02:52;;;;;;;13.70;11.82;;;;;;;18.52;77.31;100123.63;5065568;28;20089;-76
2021/07/27 02:05:17;;;;;;;15.63;13.05;;;;;;;18.55;77.10;100123.50;5065371;28;20035;-77
2021/07/27 02:07:47;;;;;;;17.08;13.30;;;;;;;18.62;77.02;100126.69;5065378;28;20040;-76
2021/07/27 02:10:14;;;;;;;16.05;12.30;;;;;;;18.60;76.65;100128.53;5065598;28;20461;-77
2021/07/27 02:12:49;;;;;;;14.68;13.18;;;;;;;18.57;77.05;100127.78;5064318;28;20154;-77
2021/07/27 02:15:15;;;;;;;14.50;11.30;;;;;;;18.57;76.57;100127.78;5064464;28;20130;-77
2021/07/27 02:17:41;;;;;;;15.98;13.07;;;;;;;18.56;76.76;100128.69;5065847;28;20028;-77
2021/07/27 02:20:06;;;;;;;14.25;12.75;;;;;;;18.57;76.64;100119.03;5065685;28;20025;-77
2021/07/27 02:22:33;;;;;;;14.07;12.55;;;;;;;18.57;77.04;100124.28;5063809;28;20120;-76
2021/07/27 02:24:58;;;;;;;14.32;11.85;;;;;;;18.56;77.01;100114.69;5065559;28;20033;-79
2021/07/27 02:27:27;;;;;;;15.02;13.07;;;;;;;18.53;77.01;100110.41;5064466;28;20076;-76
2021/07/27 02:29:53;;;;;;;16.23;13.43;;;;;;;18.50;77.14;100113.19;5065344;28;20099;-77
2021/07/27 02:32:18;;;;;;;14.27;12.35;;;;;;;18.52;77.29;100118.38;5063783;28;20465;-76
2021/07/27 02:34:43;;;;;;;16.08;13.10;;;;;;;18.53;77.19;100114.84;5066482;28;20041;-76
2021/07/27 02:37:09;;;;;;;18.08;12.90;;;;;;;18.48;77.37;100125.56;5069333;28;20036;-76
2021/07/27 02:39:34;;;;;;;13.38;11.98;;;;;;;18.50;77.42;100115.00;5069032;28;20025;-77
2021/07/27 02:42:00;;;;;;;13.25;11.60;;;;;;;18.48;77.17;100117.69;5069508;28;20048;-78
2021/07/27 02:44:25;;;;;;;18.00;13.73;;;;;;;18.48;77.61;100111.56;5067792;28;20112;-77
2021/07/27 02:46:51;;;;;;;14.90;13.02;;;;;;;18.49;77.51;100100.13;5069079;28;20052;-77
2021/07/27 02:49:16;;;;;;;15.43;12.82;;;;;;;18.47;77.76;100100.19;5068957;28;20084;-77
2021/07/27 02:51:51;;;;;;;16.48;13.15;;;;;;;18.48;77.69;100096.66;5069121;28;20090;-77
2021/07/27 02:54:17;;;;;;;16.08;13.55;;;;;;;18.52;77.91;100092.94;5067469;28;20024;-76
2021/07/27 02:56:43;;;;;;;15.68;12.63;;;;;;;18.54;77.45;100101.63;5068882;28;20063;-78
2021/07/27 02:59:08;;;;;;;18.77;13.48;;;;;;;18.56;77.61;100089.25;5068834;28;20028;-77
2021/07/27 03:01:33;;;;;;;15.32;12.85;;;;;;;18.59;77.58;100088.25;5068349;28;20060;-77
2021/07/27 03:03:59;;;;;;;16.13;12.60;;;;;;;18.61;77.66;100091.66;5068777;28;20252;-81
2021/07/27 03:06:27;;;;;;;14.00;12.10;;;;;;;18.65;77.48;100087.97;5068476;28;20466;-76
2021/07/27 03:09:03;;;;;;;14.93;12.18;;;;;;;18.64;77.29;100080.16;5068227;28;20496;-77
2021/07/27 03:11:32;;;;;;;14.27;12.48;;;;;;;18.69;77.43;100086.88;5068601;28;20021;-77
2021/07/27 03:13:57;;;;;;;13.73;12.02;;;;;;;18.70;77.86;100082.50;5068304;28;20032;-76
2021/07/27 03:16:25;;;;;;;17.40;13.85;;;;;;;18.73;77.65;100084.13;5068531;28;20078;-76
2021/07/27 03:18:56;;;;;;;18.40;13.25;;;;;;;18.74;77.68;100088.47;5068287;28;20029;-78
2021/07/27 03:21:24;;;;;;;14.93;13.32;;;;;;;18.75;77.59;100077.00;5068245;28;20067;-76
2021/07/27 03:23:49;;;;;;;15.15;12.70;;;;;;;18.76;77.64;100082.19;5068176;28;20385;-75
2021/07/27 03:26:16;;;;;;;15.20;12.18;;;;;;;18.79;77.51;100074.16;5068228;28;20025;-76
2021/07/27 03:28:42;;;;;;;17.90;13.60;;;;;;;18.82;77.51;100071.38;5067892;28;20025;-75
2021/07/27 03:31:07;;;;;;;18.05;13.32;;;;;;;18.84;77.57;100060.78;5068008;28;20154;-76
2021/07/27 03:33:33;;;;;;;13.93;12.43;;;;;;;18.85;77.43;100054.59;5066604;28;20053;-75
2021/07/27 03:35:58;;;;;;;17.95;12.85;;;;;;;18.76;77.45;100037.50;5066695;28;20045;-75
2021/07/27 03:38:24;;;;;;;16.10;12.48;;;;;;;18.85;77.28;100051.13;5067632;28;20539;-76
2021/07/27 03:40:49;;;;;;;16.42;12.73;;;;;;;18.88;76.96;100049.19;5067786;28;20028;-75
2021/07/27 03:43:14;;;;;;;14.68;13.02;;;;;;;18.87;77.07;100050.13;5067916;28;20020;-76
2021/07/27 03:45:40;;;;;;;15.02;12.70;;;;;;;18.93;76.73;100046.34;5067339;28;20040;-76
2021/07/27 03:48:05;;;;;;;15.00;11.73;;;;;;;18.95;76.68;100049.72;5067731;28;20469;-76
2021/07/27 03:50:31;;;;;;;14.85;11.52;;;;;;;18.97;76.52;100045.25;5067890;28;20025;-75
2021/07/27 03:52:56;;;;;;;14.85;12.13;;;;;;;19.00;76.53;100049.50;5067859;28;20037;-76
2021/07/27 03:55:22;;;;;;;15.45;12.30;;;;;;;19.02;76.31;100051.16;5067736;28;20059;-76
2021/07/27 03:57:47;;;;;;;15.30;12.23;;;;;;;19.08;76.35;100045.59;5068012;28;20051;-76
2021/07/27 04:00:13;;;;;;;12.05;10.75;;;;;;;19.13;75.95;100039.25;5066051;28;20029;-75
2021/07/27 04:02:38;;;;;;;14.15;11.75;;;;;;;19.12;75.97;100033.13;5067528;28;20032;-76
2021/07/27 04:05:05;;;;;;;14.77;11.57;;;;;;;19.17;75.67;100043.44;5067294;28;20025;-76
2021/07/27 04:07:31;;;;;;;15.57;12.98;;;;;;;19.21;75.53;100031.84;5067588;28;20089;-76
2021/07/27 04:09:57;;;;;;;15.73;13.02;;;;;;;19.22;75.41;100030.88;5067292;28;20047;-75
2021/07/27 04:12:23;;;;;;;14.50;11.75;;;;;;;19.28;75.69;100043.72;5067489;28;20048;-75
2021/07/27 04:14:48;;;;;;;16.77;12.68;;;;;;;19.25;75.42;100030.72;5067479;28;20025;-76
2021/07/27 04:17:21;;;;;;;15.27;12.60;;;;;;;19.27;75.35;100028.88;5067085;28;20465;-75
2021/07/27 04:19:49;;;;;;;14.95;13.10;;;;;;;19.25;75.61;100037.78;5067146;28;20085;-76
2021/07/27 04:22:14;;;;;;;17.65;12.80;;;;;;;19.27;75.55;100036.78;5067307;28;20048;-75
2021/07/27 04:24:40;;;;;;;14.75;12.38;;;;;;;19.23;75.53;100027.34;5067047;28;20036;-76
2021/07/27 04:27:05;;;;;;;15.18;12.65;;;;;;;19.26;75.42;100028.97;5067028;28;20025;-76
2021/07/27 04:29:31;;;;;;;15.00;12.20;;;;;;;19.24;75.71;100031.66;5067092;28;20021;-76
2021/07/27 04:31:57;;;;;;;16.85;13.13;;;;;;;19.23;75.55;100027.34;5065077;28;20060;-76
2021/07/27 04:34:22;;;;;;;16.17;13.10;;;;;;;19.20;75.38;100019.63;5064900;28;20104;-76
2021/07/27 04:36:54;;;;;;;16.63;13.30;;;;;;;19.20;75.66;100024.88;5066754;28;20017;-76
2021/07/27 04:39:19;;;;;;;19.33;13.75;;;;;;;19.19;75.75;100020.53;5066220;28;20057;-77
2021/07/27 04:41:44;;;;;;;17.75;13.15;;;;;;;19.15;75.75;100017.19;5065306;28;20039;-76
2021/07/27 04:44:10;;;;;;;18.02;13.18;;;;;;;19.11;75.85;100017.44;5066601;28;20031;-76
2021/07/27 04:46:35;;;;;;;16.73;13.40;;;;;;;19.12;76.25;100034.94;5066287;28;20025;-76
2021/07/27 04:49:00;;;;;;;14.50;12.68;;;;;;;19.14;75.98;100025.16;5066531;28;20079;-76
2021/07/27 04:51:28;;;;;;;16.00;13.68;;;;;;;19.12;75.94;100025.25;5065443;28;20028;-76
2021/07/27 04:53:58;;;;;;;15.80;13.02;;;;;;;19.14;75.95;100023.38;5066416;28;20069;-76
2021/07/27 04:56:23;;;;;;;18.52;14.27;;;;;;;19.13;75.95;100019.06;5066153;28;20029;-77
2021/07/27 04:58:49;;;;;;;15.20;13.60;;;;;;;19.12;76.05;100022.59;5066170;28;20111;-76
2021/07/27 05:01:14;;;;;;;18.67;13.82;;;;;;;19.14;76.10;100019.91;5066238;28;20023;-76
2021/07/27 05:03:40;;;;;;;16.35;13.20;;;;;;;19.17;76.16;100030.28;5066245;28;20017;-76
2021/07/27 05:06:08;;;;;;;14.25;12.07;;;;;;;19.20;76.05;100019.63;5066116;28;20081;-76
2021/07/27 05:08:33;;;;;;;17.65;14.07;;;;;;;19.24;76.28;100023.78;5064527;28;20100;-76
2021/07/27 05:11:03;;;;;;;14.93;13.32;;;;;;;19.30;75.94;100020.84;5066073;28;20037;-76
2021/07/27 05:13:29;;;;;;;16.25;13.63;;;;;;;19.36;75.96;100014.38;5064629;28;20055;-76
2021/07/27 05:15:55;;;;;;;17.70;14.18;;;;;;;19.43;76.04;100017.56;5066314;28;20021;-75
2021/07/27 05:18:20;;;;;;;14.75;13.15;;;;;;;19.52;75.28;100016.25;5066271;28;20049;-76
2021/07/27 05:20:46;;;;;;;17.90;13.32;;;;;;;19.58;75.44;100008.03;5065887;28;20060;-76
2021/07/27 05:23:12;;;;;;;15.15;13.38;;;;;;;19.61;75.24;100004.38;5066063;28;20051;-76
2021/07/27 05:25:39;;;;;;;16.17;13.07;;;;;;;19.61;75.42;99997.31;5064234;28;20021;-75
2021/07/27 05:28:06;;;;;;;18.55;12.95;;;;;;;19.65;75.29;99993.59;5065899;28;20021;-76
2021/07/27 05:30:32;;;;;;;14.40;12.30;;;;;;;19.69;75.21;99999.53;5065889;28;20025;-76
2021/07/27 05:33:01;;;;;;;16.13;13.50;;;;;;;19.68;75.08;99982.06;5065827;28;20024;-76
2021/07/27 05:35:26;;;;;;;16.75;13.48;;;;;;;19.70;74.79;99980.16;5065392;28;20059;-76
2021/07/27 05:37:51;;;;;;;17.10;12.60;;;;;;;19.79;74.70;99986.75;5065284;28;20044;-75
2021/07/27 05:40:17;;;;;;;14.65;12.27;;;;;;;19.81;74.70;99985.72;5063917;28;20093;-76
2021/07/27 05:42:42;;;;;;;15.43;13.55;;;;;;;19.79;75.06;99976.22;5065702;28;20537;-76
2021/07/27 05:45:08;;;;;;;18.77;13.45;;;;;;;19.83;74.42;99983.00;5065577;28;20052;-76
2021/07/27 05:47:33;;;;;;;16.25;13.25;;;;;;;19.87;74.73;99975.78;5064241;28;20045;-76
2021/07/27 05:49:58;;;;;;;17.00;13.75;;;;;;;19.96;74.45;99966.50;5065708;28;20044;-76
2021/07/27 05:52:24;;;;;;;15.80;12.77;;;;;;;20.11;74.32;99973.59;5065899;28;20025;-76
2021/07/27 05:54:51;;;;;;;16.67;13.25;;;;;;;20.12;74.09;99959.50;5065778;28;20025;-75
2021/07/27 05:57:17;;;;;;;16.52;13.55;;;;;;;20.16;73.79;99963.66;5065853;28;20041;-76
2021/07/27 05:59:43;;;;;;;16.75;13.57;;;;;;;20.16;73.56;99944.38;5064191;28;20124;-76
2021/07/27 06:02:11;;;;;;;16.88;12.82;;;;;;;20.22;73.45;99936.13;5065594;28;20017;-75
2021/07/27 06:04:36;;;;;;;16.23;12.35;;;;;;;20.35;73.27;99946.78;5065233;28;20025;-76
2021/07/27 06:07:02;;;;;;;16.48;12.02;;;;;;;20.47;73.17;99949.66;5064307;28;20106;-76
2021/07/27 06:09:27;;;;;;;16.92;13.32;;;;;;;20.61;73.32;99948.88;5068266;28;20098;-73
2021/07/27 06:11:53;;;;;;;14.93;12.48;;;;;;;20.83;72.36;99956.38;5068264;28;20104;-74
2021/07/27 06:14:18;;;;;;;15.80;12.68;;;;;;;20.93;71.83;99964.63;5069232;28;20029;-75
2021/07/27 06:16:43;;;;;;;15.48;12.93;;;;;;;20.93;70.97;99968.13;5069386;28;20021;-74
2021/07/27 06:19:09;;;;;;;16.42;12.10;;;;;;;20.90;71.12;99965.63;5069426;28;20028;-74
2021/07/27 06:21:39;;;;;;;15.95;12.57;;;;;;;20.91;71.13;99959.44;5069336;28;20025;-75
2021/07/27 06:24:06;;;;;;;17.55;13.65;;;;;;;20.90;71.17;99959.50;5068959;28;20191;-74
2021/07/27 06:26:31;;;;;;;17.70;12.88;;;;;;;20.96;70.97;99971.53;5069267;28;20088;-75
2021/07/27 06:28:56;;;;;;;14.88;13.35;;;;;;;20.94;70.92;99974.25;5068936;28;20085;-74
2021/07/27 06:31:22;;;;;;;15.52;13.27;;;;;;;20.93;70.35;99983.09;5067681;28;20074;-75
2021/07/27 06:33:47;;;;;;;16.67;13.30;;;;;;;20.79;70.76;99975.97;5068533;28;20398;-75
2021/07/27 06:36:13;;;;;;;14.75;12.25;;;;;;;20.70;70.97;99985.28;5067119;28;20056;-76
2021/07/27 06:38:39;;;;;;;20.42;13.18;;;;;;;20.63;70.70;99982.13;5069398;28;20084;-77
2021/07/27 06:41:06;;;;;;;14.13;12.35;;;;;;;20.49;71.07;99984.72;5067554;28;20055;-75
2021/07/27 06:43:32;;;;;;;17.27;13.30;;;;;;;20.42;71.40;99978.94;5069012;28;20024;-74
2021/07/27 06:45:57;;;;;;;15.63;13.50;;;;;;;20.42;71.64;99973.66;5067603;28;20029;-75
2021/07/27 06:48:24;;;;;;;14.50;12.25;;;;;;;20.49;72.09;99964.47;5068754;28;20039;-76
2021/07/27 06:50:53;;;;;;;14.82;12.73;;;;;;;20.74;72.06;99968.31;5068665;28;20051;-76
2021/07/27 06:53:19;;;;;;;15.88;13.32;;;;;;;21.05;71.28;99963.06;5067244;28;20021;-75
2021/07/27 06:55:45;;;;;;;16.42;11.93;;;;;;;21.27;70.62;99961.75;5068848;28;20013;-76
2021/07/27 06:58:10;;;;;;;18.60;12.68;;;;;;;21.49;69.76;99966.56;5068974;28;20081;-76
2021/07/27 07:00:39;;;;;;;15.65;12.57;;;;;;;21.60;69.36;99957.97;5067190;28;20377;-76
2021/07/27 07:03:05;;;;;;;15.50;13.18;;;;;;;21.72;69.47;99960.81;5067288;28;20024;-76
2021/07/27 07:05:30;;;;;;;14.93;13.38;;;;;;;21.82;68.63;99961.13;5068423;28;20036;-76
2021/07/27 07:07:56;;;;;;;16.13;12.30;;;;;;;21.88;68.07;99958.94;5068317;28;20033;-74
2021/07/27 07:10:21;;;;;;;16.85;12.20;;;;;;;21.90;68.44;99953.56;5068563;28;20111;-74
2021/07/27 07:12:46;;;;;;;14.05;12.63;;;;;;;22.04;68.49;99964.06;5068307;28;20021;-74
2021/07/27 07:15:12;;;;;;;14.30;12.15;;;;;;;22.25;67.58;99968.91;5068438;28;20033;-74
2021/07/27 07:17:37;;;;;;;17.05;11.82;;;;;;;22.38;67.21;99954.91;5068269;28;20433;-75
2021/07/27 07:20:03;;;;;;;18.33;13.38;;;;;;;22.34;66.68;99956.06;5067614;28;20024;-74
2021/07/27 07:22:29;;;;;;;14.60;12.95;;;;;;;22.26;66.52;99964.50;5068166;28;20025;-74
2021/07/27 07:24:55;;;;;;;15.98;13.30;;;;;;;22.12;66.49;99968.88;5067974;28;20039;-74
2021/07/27 07:27:20;;;;;;;16.05;13.90;;;;;;;21.98;66.94;99976.84;5067820;28;20088;-75
2021/07/27 07:29:45;;;;;;;14.85;13.27;;;;;;;21.80;67.04;99979.72;5066599;28;20025;-75
2021/07/27 07:32:11;;;;;;;14.95;12.52;;;;;;;21.69;67.60;99985.63;5068315;28;20025;-76
2021/07/27 07:34:36;;;;;;;15.27;12.75;;;;;;;21.49;67.88;99990.34;5068081;28;20045;-75
2021/07/27 07:37:03;;;;;;;16.55;13.07;;;;;;;21.32;68.67;99974.69;5068166;28;20017;-75
2021/07/27 07:39:29;;;;;;;15.38;13.02;;;;;;;21.24;69.22;99977.78;5067542;28;20141;-74
2021/07/27 07:41:55;;;;;;;15.30;13.57;;;;;;;21.30;69.17;99980.91;5066249;28;20497;-75
2021/07/27 07:44:22;;;;;;;17.45;13.93;;;;;;;21.37;69.22;99977.91;5067723;28;20016;-74
2021/07/27 07:46:47;;;;;;;15.07;13.48;;;;;;;21.38;69.27;99974.31;5067589;28;20014;-75
2021/07/27 07:49:13;;;;;;;17.40;13.38;;;;;;;21.37;69.16;99984.03;5067674;28;20033;-75
2021/07/27 07:51:44;;;;;;;16.17;13.32;;;;;;;21.39;69.55;99981.31;5067750;28;20382;-74
2021/07/27 07:54:09;;;;;;;16.27;14.00;;;;;;;21.50;69.53;99983.28;5067749;28;20421;-74
2021/07/27 07:56:35;;;;;;;17.40;12.85;;;;;;;21.61;69.27;99985.25;5066547;28;20391;-75
2021/07/27 07:59:00;;;;;;;16.92;13.25;;;;;;;21.62;68.96;99984.31;5067730;28;20021;-75
2021/07/27 08:01:25;;;;;;;16.70;12.85;;;;;;;21.70;69.17;99978.53;5067870;28;20029;-75
2021/07/27 08:03:51;;;;;;;14.65;12.20;;;;;;;21.97;68.53;99975.13;5067565;28;20316;-76
2021/07/27 08:06:16;;;;;;;14.43;12.40;;;;;;;22.13;68.04;99970.56;5067431;28;20043;-75
2021/07/27 08:08:41;;;;;;;14.13;12.65;;;;;;;22.40;67.85;99976.81;5067251;28;20021;-75
2021/07/27 08:11:09;;;;;;;18.15;13.05;;;;;;;22.74;66.32;99966.69;5067434;28;20031;-75
2021/07/27 08:13:34;;;;;;;13.57;11.82;;;;;;;23.19;65.69;99975.19;5067488;28;20021;-75
2021/07/27 08:16:00;;;;;;;14.57;11.80;;;;;;;23.73;63.65;99965.31;5067266;28;20013;-76
2021/07/27 08:18:25;;;;;;;14.80;12.02;;;;;;;24.33;62.40;99967.28;5067181;28;20052;-75
2021/07/27 08:20:51;;;;;;;14.40;11.65;;;;;;;25.07;60.15;99954.72;5067255;28;20025;-75
2021/07/27 08:23:17;;;;;;;13.90;12.40;;;;;;;25.61;58.76;99958.53;5066976;28;20025;-75
2021/07/27 08:25:42;;;;;;;16.05;12.23;;;;;;;26.03;56.86;99964.13;5065577;28;20089;-75
2021/07/27 08:28:08;;;;;;;13.15;11.75;;;;;;;26.41;56.52;99954.00;5065607;28;20084;-75
2021/07/27 08:30:33;;;;;;;13.15;11.75;;;;;;;26.80;54.09;99953.44;5066920;28;20029;-76
2021/07/27 08:32:58;;;;;;;13.85;11.85;;;;;;;26.48;54.38;99960.50;5067064;28;20047;-75
2021/07/27 08:35:24;;;;;;;13.30;11.95;;;;;;;26.18;55.11;99964.72;5066986;28;20122;-75
2021/07/27 08:37:50;;;;;;;12.88;11.50;;;;;;;26.22;55.19;99967.00;5067302;28;20028;-76
2021/07/27 08:40:17;;;;;;;13.18;11.15;;;;;;;26.59;54.21;99964.94;5065382;28;20093;-75
2021/07/27 08:42:44;;;;;;;16.08;12.07;;;;;;;26.53;54.18;99962.78;5067054;28;20024;-75
2021/07/27 08:45:12;;;;;;;13.27;11.77;;;;;;;26.32;53.89;99964.44;5066604;28;20020;-75
2021/07/27 08:47:41;;;;;;;15.57;12.98;;;;;;;25.87;54.27;99962.72;5066912;28;20381;-75
2021/07/27 08:50:09;;;;;;;14.23;12.43;;;;;;;25.61;54.93;99963.84;5065070;28;20032;-75
2021/07/27 08:52:34;;;;;;;13.90;12.05;;;;;;;25.44;55.37;99966.97;5066434;28;20560;-76
2021/07/27 08:54:59;;;;;;;13.63;11.23;;;;;;;25.16;55.62;99961.97;5064871;28;20032;-76
2021/07/27 08:57:25;;;;;;;12.93;11.55;;;;;;;24.91;56.26;99955.06;5066712;28;20028;-76
2021/07/27 08:59:52;;;;;;;12.52;10.70;;;;;;;25.13;56.83;99959.56;5066056;28;20074;-74
2021/07/27 09:02:35;;;;;;;12.55;11.20;;;;;;;25.72;56.36;99959.50;5065946;28;20032;-75
2021/07/27 09:05:13;;;;;;;14.38;11.27;;;;;;;26.10;54.31;99965.34;5066060;28;20080;-76
2021/07/27 09:07:39;;;;;;;12.90;11.35;;;;;;;26.04;53.92;99969.31;5065950;28;20055;-76
2021/07/27 09:10:13;;;;;;;15.68;12.00;;;;;;;25.52;54.69;99964.53;5066297;28;20385;-75
2021/07/27 09:12:49;;;;;;;13.35;11.93;;;;;;;25.06;55.83;99961.88;5066173;28;20020;-75
2021/07/27 09:15:15;;;;;;;17.67;13.73;;;;;;;24.70;57.24;99964.53;5066054;28;20048;-76
2021/07/27 09:17:50;;;;;;;13.32;12.00;;;;;;;24.34;58.27;99963.66;5065872;28;20028;-77
2021/07/27 09:20:49;;;;;;;13.77;12.38;;;;;;;23.92;59.25;99975.44;5066536;28;20075;-77
2021/07/27 09:23:19;;;;;;;13.90;12.45;;;;;;;23.58;60.30;99957.50;5053883;28;20040;-76
2021/07/27 09:25:47;;;;;;;15.50;13.18;;;;;;;23.46;60.88;99977.75;5065762;28;20028;-77
2021/07/27 09:28:13;;;;;;;15.25;12.45;;;;;;;23.35;61.47;99970.53;5065696;28;20092;-76
2021/07/27 09:30:42;;;;;;;13.40;12.00;;;;;;;23.30;61.60;99966.50;5065743;28;20055;-76
2021/07/27 09:33:08;;;;;;;14.65;12.20;;;;;;;23.28;61.74;99966.59;5065919;28;20036;-77
2021/07/27 09:35:35;;;;;;;15.10;12.68;;;;;;;23.18;61.91;99974.34;5064101;28;20076;-77
2021/07/27 09:38:00;;;;;;;15.40;13.68;;;;;;;23.09;62.45;99969.69;5065403;28;20028;-75
2021/07/27 09:40:26;;;;;;;14.02;12.60;;;;;;;23.03;62.63;99969.13;5065170;28;20087;-76
2021/07/27 09:42:52;;;;;;;14.13;12.55;;;;;;;22.94;62.16;99969.75;5065055;28;20025;-78
2021/07/27 09:45:18;;;;;;;16.15;12.48;;;;;;;22.77;63.04;99968.25;5065651;28;20412;-77
2021/07/27 09:47:48;;;;;;;13.68;12.27;;;;;;;22.73;63.39;99975.56;5065628;28;20049;-77
2021/07/27 09:50:17;;;;;;;16.23;12.10;;;;;;;22.80;63.63;99972.50;5065771;28;20592;-77
2021/07/27 09:52:45;;;;;;;13.50;12.07;;;;;;;23.06;63.31;99964.59;5065765;28;20033;-77
2021/07/27 09:55:11;;;;;;;15.23;11.10;;;;;;;23.33;62.75;99961.00;5065535;28;20075;-75
2021/07/27 09:57:36;;;;;;;11.70;10.50;;;;;;;23.94;61.91;99957.63;5064236;28;20029;-76
2021/07/27 10:00:03;;;;;;;12.10;10.77;;;;;;;24.60;60.40;99958.22;5065499;28;20025;-76
2021/07/27 10:02:31;;;;;;;16.77;11.60;;;;;;;25.50;58.60;99956.69;5064139;28;20323;-76
2021/07/27 10:04:57;;;;;;;14.50;11.95;;;;;;;25.95;57.26;99960.28;5065461;28;20101;-76
2021/07/27 10:07:29;;;;;;;13.40;11.38;;;;;;;26.15;56.51;99960.47;5065566;28;20036;-75
2021/07/27 10:10:08;;;;;;;13.30;11.90;;;;;;;26.18;55.83;99962.88;5065212;28;20497;-75
2021/07/27 10:12:37;;;;;;;16.00;11.57;;;;;;;26.15;55.96;99949.81;5064986;28;20103;-76
2021/07/27 10:15:13;;;;;;;15.50;11.70;;;;;;;26.20;55.39;99944.97;5064289;28;20028;-75
2021/07/27 10:17:52;;;;;;;15.95;11.63;;;;;;;26.29;55.89;99961.16;5065581;28;20025;-76
2021/07/27 10:20:25;;;;;;;13.45;10.43;;;;;;;26.37;55.37;99953.44;5065351;28;20025;-75
2021/07/27 10:22:51;;;;;;;11.85;10.65;;;;;;;26.46;54.16;99963.31;5065436;28;20045;-77
2021/07/27 10:25:20;;;;;;;12.98;11.57;;;;;;;26.14;53.74;99961.44;5063743;28;20017;-77
2021/07/27 10:27:54;;;;;;;14.02;11.30;;;;;;;25.89;54.47;99962.59;5065595;28;20029;-78
2021/07/27 10:30:33;;;;;;;12.93;11.63;;;;;;;25.62;54.95;99960.22;5065391;28;20021;-78
2021/07/27 10:32:59;;;;;;;13.70;11.15;;;;;;;25.56;55.39;99967.81;5065304;28;20063;-78
2021/07/27 10:35:28;;;;;;;14.90;11.13;;;;;;;25.73;55.98;99963.84;5064739;28;20049;-77
2021/07/27 10:38:14;;;;;;;14.15;11.10;;;;;;;26.20;55.63;99965.44;5063762;28;20117;-78
2021/07/27 10:40:42;;;;;;;12.50;11.23;;;;;;;26.63;54.92;99962.88;5063377;28;20573;-77
2021/07/27 10:43:07;;;;;;;16.25;11.55;;;;;;;27.94;51.71;99963.22;5063658;28;20036;-76
2021/07/27 10:45:36;;;;;;;13.20;11.75;;;;;;;28.67;49.52;99963.03;5065028;28;20029;-77
2021/07/27 10:48:02;;;;;;;12.90;11.05;;;;;;;29.40;48.08;99958.91;5064866;28;20083;-77
2021/07/27 10:50:33;;;;;;;12.25;10.75;;;;;;;29.49;46.68;99953.66;5063574;28;20025;-76
2021/07/27 10:53:07;;;;;;;12.32;10.70;;;;;;;29.29;46.98;99956.41;5065036;28;20024;-76
2021/07/27 10:55:33;;;;;;;13.40;11.23;;;;;;;29.33;46.83;99947.09;5066546;28;20021;-75
2021/07/27 10:58:02;;;;;;;12.57;10.77;;;;;;;29.28;46.86;99946.72;5068865;28;20423;-76
2021/07/27 11:00:33;;;;;;;13.63;10.45;;;;;;;29.82;46.45;99951.41;5066959;28;20070;-76
2021/07/27 11:02:59;;;;;;;12.20;10.90;;;;;;;30.46;44.07;99958.56;5067618;28;20021;-76
2021/07/27 11:05:29;;;;;;;14.25;10.68;;;;;;;30.69;43.67;99952.69;5066945;28;20025;-75
2021/07/27 11:07:55;;;;;;;14.57;11.43;;;;;;;30.59;43.53;99958.16;5066608;28;20035;-74
2021/07/27 11:10:22;;;;;;;13.98;11.00;;;;;;;30.29;43.94;99952.22;5066741;28;20025;-75
2021/07/27 11:12:48;;;;;;;11.32;10.23;;;;;;;30.17;44.03;99948.91;5068381;28;20052;-75
2021/07/27 11:15:17;;;;;;;13.25;10.65;;;;;;;29.83;44.14;99950.41;5068248;28;20029;-75
2021/07/27 11:17:51;;;;;;;14.48;11.57;;;;;;;29.28;45.33;99946.72;5067006;28;20021;-76
2021/07/27 11:20:43;;;;;;;13.38;11.27;;;;;;;28.79;46.45;99942.31;5066972;28;20124;-76
2021/07/27 11:23:13;;;;;;;12.40;11.15;;;;;;;28.29;47.23;99941.53;5066911;28;20040;-75
2021/07/27 11:25:39;;;;;;;16.10;11.07;;;;;;;27.89;48.69;99944.16;5068105;28;20028;-75
2021/07/27 11:28:12;;;;;;;12.52;11.23;;;;;;;27.58;49.11;99933.50;5067731;28;20033;-74
2021/07/27 11:30:39;;;;;;;13.68;11.93;;;;;;;27.29;50.00;99928.91;5068069;28;20028;-75